Latest Coastal Weather Observations for Cape Moreton

IDQ60701

Issued at 2:02 pm EST Sunday 14 February 2016 (issued every 10 minutes, with the page automatically refreshed every 10 minutes)

About coastal observations | Map of coastal stations | Coastal observations for QLD | Marine services | Other Formats
Station Details ID: 040043 Name: CAPE MORETON LIGHTHOUSE Lat: -27.03 Lon: 153.47 Height: 99.9 m
Data from the previous 72 hours. | See also: Recent months at Cape Moreton
Date/Time
EST
Temp

°C
Wind Pressure Rain
since 9am
mm
Weather Cloud Vis
km
Sea
Height
m
Swell
Dir
 
Speed
knots
Gust
knots
hPa Trend Height
m
Period
s
Dir
14/02:00pm 25.8 SSE 24 31 1006.4 - 0.0 - - - - - - -
14/01:30pm 25.7 SSE 25 30 1006.5 - 0.0 - - - - - - -
14/01:00pm 25.4 SSE 24 31 1006.6 - 0.0 - - - - - - -
14/12:30pm 25.8 SSE 27 33 1006.8 - 0.0 - - - - - - -
14/12:00pm 25.5 SSE 26 34 1006.7 - 0.0 - - - - - - -
14/11:30am 25.4 SSE 23 34 1007.0 - 0.0 - - - - - - -
14/11:06am 24.6 SSE 24 34 1007.3 - 0.0 - - - - - - -
14/11:00am 24.5 SSE 26 34 1007.3 - 0.0 - - - - - - -
14/10:30am 24.2 SSE 23 32 1007.7 - 0.0 - - - - - - -
14/10:00am 24.1 SSE 23 33 1007.6 - 0.0 - - - - - - -
14/09:55am 24.0 SSE 23 33 1007.5 - 0.0 - - - - - - -
14/09:30am 24.5 SSE 21 29 1007.7 - 0.0 - - - - - - -
14/09:00am 24.4 SSE 23 29 1007.6 - 3.6 - - - - - - -
14/08:30am 24.0 SSE 21 28 1007.5 - 3.6 - - - - - - -
14/08:00am 23.3 S 15 21 1007.8 - 3.6 - - - - - - -
14/07:30am 22.8 S 16 22 1007.8 - 3.6 - - - - - - -
14/07:00am 22.6 SSW 16 23 1007.5 - 3.6 - - - - - - -
14/06:30am 22.6 S 17 24 1007.4 - 3.6 - - - - - - -
14/06:00am 22.4 S 14 19 1007.3 - 3.6 - - - - - - -
14/05:30am 22.3 S 13 19 1007.1 - 3.6 - - - - - - -
14/05:00am 22.3 SSW 15 22 1007.1 - 3.6 - - - - - - -
14/04:30am 22.6 S 14 18 1007.0 - 3.6 - - - - - - -
14/04:00am 22.8 S 16 22 1006.8 - 3.6 - - - - - - -
14/03:30am 22.5 SSW 15 20 1006.9 - 3.6 - - - - - - -
14/03:00am 22.4 SSW 14 19 1006.9 - 3.6 - - - - - - -
14/02:32am 22.9 S 15 25 1006.9 - 3.6 - - - - - - -
14/02:30am 22.9 S 14 21 1007.0 - 3.6 - - - - - - -
14/02:27am 23.1 S 14 20 1007.0 - 3.6 - - - - - - -
14/02:00am 24.1 SSE 26 31 1006.7 - 3.6 - - - - - - -
14/01:30am 24.1 SSE 29 33 1006.9 - 3.6 - - - - - - -
14/01:00am 24.0 SSE 26 32 1007.4 - 3.6 - - - - - - -
14/12:30am 24.0 SSE 26 31 1007.7 - 3.6 - - - - - - -
14/12:00am 24.1 SE 28 32 1008.1 - 3.6 - - - - - - -
 
Date/Time
EST
Temp

°C
Wind Pressure Rain
since 9am
mm
Weather Cloud Vis
km
Sea
Height
m
Swell
Dir
 
Speed
knots
Gust
knots
hPa Trend Height
m
Period
s
Dir
13/11:30pm 24.2 SE 27 32 1008.5 - 3.6 - - - - - - -
13/11:00pm 24.3 SE 27 31 1008.8 - 3.6 - - - - - - -
13/10:30pm 24.3 SE 28 36 1008.9 - 3.6 - - - - - - -
13/10:00pm 24.4 SE 27 33 1009.0 - 3.6 - - - - - - -
13/09:30pm 24.3 SSE 29 34 1009.1 - 3.6 - - - - - - -
13/09:00pm 24.2 SSE 29 34 1009.0 - 3.6 - - - - - - -
13/08:30pm 24.3 SSE 33 38 1008.7 - 3.6 - - - - - - -
13/08:00pm 24.1 SE 31 37 1008.8 - 3.6 - - - - - - -
13/07:30pm 24.2 SE 31 37 1008.7 - 3.6 - - - - - - -
13/07:00pm 24.4 SE 31 37 1008.4 - 3.6 - - - - - - -
13/06:30pm 24.3 SE 32 37 1008.1 - 3.6 - - - - - - -
13/06:00pm 24.5 SE 30 37 1008.1 - 3.6 - - - - - - -
13/05:30pm 24.6 SSE 33 38 1007.9 - 3.6 - - - - - - -
13/05:00pm 24.9 SSE 32 36 1007.7 - 3.6 - - - - - - -
13/04:30pm 24.8 SSE 32 38 1007.8 - 3.6 - - - - - - -
13/04:00pm 25.0 SE 31 37 1007.7 - 3.6 - - - - - - -
13/03:30pm 25.1 SE 31 36 1007.8 - 3.6 - - - - - - -
13/03:00pm 25.1 SE 29 34 1007.9 - 3.6 - - - - - - -
13/02:30pm 25.2 SE 30 36 1007.9 - 3.6 - - - - - - -
13/02:00pm 25.0 SE 31 36 1007.8 - 3.6 - - - - - - -
13/01:30pm 25.1 SE 33 39 1008.0 - 3.6 - - - - - - -
13/01:00pm 25.5 SE 31 37 1008.3 - 3.6 - - - - - - -
13/12:30pm 25.1 SE 32 37 1008.5 - 3.6 - - - - - - -
13/12:00pm 24.5 SE 32 38 1008.9 - 3.6 Recent precip. - - - - - -
13/11:30am 23.4 ESE 29 35 1009.1 - 3.6 - - - - - - -
13/11:20am 22.7 SE 25 37 1009.4 - 3.6 - - - - - - -
13/11:08am 22.8 SSE 21 31 1009.7 - 3.2 - - - - - - -
13/11:00am 22.8 SSE 21 29 1009.8 - 3.2 - - - - - - -
13/10:30am 22.3 SSE 28 35 1009.6 - 2.4 - - - - - - -
13/10:21am 22.7 SE 25 35 1009.4 - 2.2 - - - - - - -
13/10:16am 22.3 SE 27 33 1009.5 - 2.2 - - - - - - -
13/10:00am 22.0 SE 35 40 1009.2 - 0.4 - - - - - - -
13/09:30am 25.2 SE 29 33 1009.6 - 0.0 - - - - - - -
13/09:00am 24.3 SE 27 33 1009.7 - 0.4 - - - - - - -
13/08:30am 24.3 SE 30 36 1009.7 - 0.4 - - - - - - -
13/08:00am 23.9 SE 31 36 1009.5 - 0.4 - - - - - - -
13/07:32am 23.6 SE 30 43 1009.0 - 0.0 - - - - - - -
13/07:30am 24.4 SE 29 35 1009.5 - 0.0 - - - - - - -
13/07:00am 24.2 SE 33 38 1009.2 - 0.0 - - - - - - -
13/06:46am 24.3 SE 31 41 1009.0 - 0.0 - - - - - - -
13/06:30am 24.8 SE 33 39 1009.1 - 0.0 - - - - - - -
13/06:00am 24.1 SE 32 38 1008.4 - 0.0 - - - - - - -
13/05:30am 24.1 SE 32 38 1008.3 - 0.0 - - - - - - -
13/05:00am 24.0 SE 33 41 1008.1 - 0.0 - - - - - - -
13/04:30am 24.0 SE 33 38 1007.9 - 0.0 - - - - - - -
13/04:00am 23.9 SE 32 37 1008.2 - 0.0 - - - - - - -
13/03:30am 23.7 SE 31 38 1008.3 - 0.0 - - - - - - -
13/03:00am 23.9 SE 28 35 1008.9 - 0.0 - - - - - - -
13/02:30am 23.9 SE 30 36 1009.0 - 0.0 - - - - - - -
13/02:00am 23.8 SE 29 34 1009.3 - 0.0 - - - - - - -
13/01:30am 24.0 SE 28 33 1009.4 - 0.0 - - - - - - -
13/01:00am 24.0 SE 27 31 1009.7 - 0.0 - - - - - - -
13/12:30am 24.0 SE 28 34 1010.0 - 0.0 - - - - - - -
13/12:00am 23.9 SE 27 33 1010.3 - 0.0 - - - - - - -
 
Date/Time
EST
Temp

°C
Wind Pressure Rain
since 9am
mm
Weather Cloud Vis
km
Sea
Height
m
Swell
Dir
 
Speed
knots
Gust
knots
hPa Trend Height
m
Period
s
Dir
12/11:30pm 24.0 SE 28 33 1010.5 - 0.0 - - - - - - -
12/11:00pm 24.1 SE 27 33 1011.0 - 0.0 - - - - - - -
12/10:30pm 24.2 SE 28 34 1011.0 - 0.0 - - - - - - -
12/10:00pm 24.1 SE 30 34 1011.5 - 0.0 - - - - - - -
12/09:30pm 24.2 SE 29 33 1011.4 - 0.0 - - - - - - -
12/09:00pm 24.4 SE 28 33 1011.5 - 0.0 - - - - - - -
12/08:30pm 24.4 SE 29 34 1011.4 - 0.0 - - - - - - -
12/08:00pm 24.3 SE 29 35 1011.4 - 0.0 - - - - - - -
12/07:30pm 24.6 SE 28 35 1011.3 - 0.0 - - - - - - -
12/07:00pm 24.4 SE 31 36 1011.1 - 0.0 - - - - - - -
12/06:30pm 24.4 SE 29 35 1011.1 - 0.0 - - - - - - -
12/06:00pm 24.7 SE 29 35 1010.7 - 0.0 - - - - - - -
12/05:30pm 24.6 SE 29 33 1010.7 - 0.0 - - - - - - -
12/05:00pm 25.0 SE 25 31 1010.8 - 0.0 - - - - - - -
12/04:30pm 25.2 SE 26 31 1010.8 - 0.0 - - - - - - -
12/04:00pm 25.7 SE 24 30 1010.7 - 0.0 - - - - - - -
12/03:30pm 25.5 SE 27 32 1010.5 - 0.0 - - - - - - -
12/03:00pm 25.8 SE 26 31 1010.7 - 0.0 - - - - - - -
12/02:30pm 25.8 SE 27 31 1010.8 - 0.0 - - - - - - -
12/02:00pm 26.0 SE 24 30 1010.9 - 0.0 - - - - - - -
12/01:30pm 26.3 SE 26 30 1011.0 - 0.0 - - - - - - -
12/01:00pm 26.4 SE 27 32 1011.1 - 0.0 - - - - - - -
12/12:30pm 26.1 SE 28 33 1011.1 - 0.0 - - - - - - -
12/12:00pm 26.5 SE 27 33 1011.2 - 0.0 - - - - - - -
12/11:30am 26.4 SE 26 32 1011.7 - 0.0 - - - - - - -
12/11:00am 26.1 SE 27 31 1011.6 - 0.0 - - - - - - -
12/10:30am 26.7 ESE 26 31 1011.9 - 0.0 - - - - - - -
12/10:00am 26.4 SE 27 31 1011.8 - 0.0 - - - - - - -
12/09:30am 26.5 SE 26 31 1011.9 - 0.0 - - - - - - -
12/09:00am 25.5 SE 25 29 1011.9 - 0.0 - - - - - - -
12/08:30am 25.9 SE 26 30 1011.8 - 0.0 - - - - - - -
12/08:00am 25.6 SE 24 28 1012.0 - 0.0 - - - - - - -
12/07:30am 25.4 SE 25 29 1011.8 - 0.0 - - - - - - -
12/07:00am 25.2 SE 23 27 1011.7 - 0.0 - - - - - - -
12/06:30am 24.6 SE 24 28 1011.6 - 0.0 - - - - - - -
12/06:00am 24.1 SE 24 29 1011.6 - 0.0 - - - - - - -
12/05:30am 23.9 SE 22 27 1011.3 - 0.0 - - - - - - -
12/05:00am 23.7 SE 23 28 1011.0 - 0.0 - - - - - - -
12/04:30am 23.7 SE 22 26 1010.8 - 0.0 - - - - - - -
12/04:00am 23.9 SE 22 25 1010.8 - 0.0 - - - - - - -
12/03:30am 24.0 SE 21 25 1010.9 - 0.0 - - - - - - -
12/03:00am 23.9 ESE 21 25 1011.0 - 0.0 - - - - - - -
12/02:30am 23.9 ESE 22 25 1011.1 - 0.0 - - - - - - -
12/02:00am 23.8 SE 22 25 1011.2 - 0.0 - - - - - - -
12/01:30am 24.0 ESE 22 26 1011.2 - 0.0 - - - - - - -
12/01:00am 24.1 SE 21 25 1011.4 - 0.0 - - - - - - -
12/12:30am 24.1 SE 22 25 1011.6 - 0.0 - - - - - - -
12/12:00am 24.0 SE 21 27 1011.7 - 0.0 - - - - - - -
 
Date/Time
EST
Temp

°C
Wind Pressure Rain
since 9am
mm
Weather Cloud Vis
km
Sea
Height
m
Swell
Dir
 
Speed
knots
Gust
knots
hPa Trend Height
m
Period
s
Dir
11/11:30pm 23.9 SE 22 26 1011.7 - 0.0 - - - - - - -
11/11:00pm 24.0 ESE 23 27 1012.0 - 0.0 - - - - - - -
11/10:30pm 24.0 ESE 22 27 1012.1 - 0.0 - - - - - - -
11/10:00pm 24.0 ESE 22 25 1012.2 - 0.0 - - - - - - -
11/09:30pm 24.0 ESE 23 27 1012.3 - 0.0 - - - - - - -
11/09:00pm 24.1 ESE 24 28 1012.3 - 0.0 - - - - - - -
11/08:30pm 24.1 ESE 24 29 1012.3 - 0.0 - - - - - - -
11/08:00pm 24.1 ESE 24 29 1012.1 - 0.0 - - - - - - -
11/07:30pm 24.2 ESE 24 29 1011.9 - 0.0 - - - - - - -
11/07:00pm 24.3 ESE 24 28 1011.7 - 0.0 - - - - - - -
11/06:30pm 24.4 ESE 24 29 1011.4 - 0.0 - - - - - - -
11/06:00pm 24.7 ESE 24 28 1011.1 - 0.0 - - - - - - -
11/05:30pm 25.0 ESE 25 28 1010.8 - 0.0 - - - - - - -
11/05:00pm 25.2 ESE 25 30 1010.5 - 0.0 - - - - - - -
11/04:30pm 25.1 ESE 27 32 1010.3 - 0.0 - - - - - - -
11/04:00pm 25.2 SE 25 29 1010.3 - 0.0 - - - - - - -
11/03:30pm 25.3 SE 25 29 1010.3 - 0.0 - - - - - - -
11/03:00pm 26.0 SE 25 29 1010.4 - 0.0 - - - - - - -
11/02:30pm 25.9 SE 25 29 1010.7 - 0.0 - - - - - - -

Other Formats:

Comma delimited format used in spreadsheet applications
http://www.bom.gov.au/fwo/IDQ60701/IDQ60701.94594.axf

JavaScript Object Notation format (JSON) in row-major order
http://www.bom.gov.au/fwo/IDQ60701/IDQ60701.94594.json